Sheyang, China
Current Conditions -  °F | °C
As of 2:00 AM on Saturday 25 Oct 2014 (Local Time) from ZSQD Reporting Station
Haze Haze  
Wind Chill: 64°   Ceiling: Unl
Heat Index: 64°   Visibility: 3mi
Dew Point: 59°   Wind: 11mph
Humidity: 83%   Direction: 160°SSE
Pressure: 30"   Gusts: NA
Location:  33.77°N, 120.25°E
Report Text: ZSQD 241800Z 16005MPS 5000 BR NSC 18/15 Q1016 NOSIG
Loading
Personal Weather Stations






























Interactive Weather Map
Tropical Storm Tracking
New forecast layout! Learn more

10-Day Weather Forecast

Advertisements
Track Severe Weather on mobile